createdAt,value
2022-10-18T00:01:50.724Z,14.50
2022-10-18T00:04:22.748Z,14.50
2022-10-18T00:06:54.882Z,14.40
2022-10-18T00:09:27.729Z,14.40
2022-10-18T00:12:00.763Z,14.40
2022-10-18T00:14:32.754Z,14.40
2022-10-18T00:17:04.804Z,14.40
2022-10-18T00:19:36.864Z,14.40
2022-10-18T00:22:14.945Z,14.40
2022-10-18T00:24:47.070Z,14.30
2022-10-18T00:27:19.059Z,14.40
2022-10-18T00:29:53.295Z,14.30
2022-10-18T00:32:26.454Z,14.30
2022-10-18T00:34:59.188Z,14.30
2022-10-18T00:37:31.445Z,14.30
2022-10-18T00:40:05.202Z,14.20
2022-10-18T00:42:38.349Z,14.20
2022-10-18T00:45:22.507Z,14.10
2022-10-18T00:48:01.399Z,14.20
2022-10-18T00:50:35.610Z,14.20
2022-10-18T00:53:12.866Z,14.20
2022-10-18T00:55:47.969Z,14.20
2022-10-18T00:58:20.294Z,14.10
2022-10-18T01:00:52.191Z,14.10
2022-10-18T01:03:24.117Z,14.20
2022-10-18T01:05:56.123Z,14.20
2022-10-18T01:08:34.312Z,14.20
2022-10-18T01:11:38.063Z,14.20
2022-10-18T01:14:51.709Z,14.30
2022-10-18T01:18:14.715Z,14.30
2022-10-18T01:21:15.328Z,14.30
2022-10-18T01:24:45.191Z,14.30
2022-10-18T01:28:02.928Z,14.30
2022-10-18T01:31:01.968Z,14.40
2022-10-18T01:33:58.645Z,14.40
2022-10-18T01:36:40.397Z,14.40
2022-10-18T01:39:23.042Z,14.40
2022-10-18T01:42:01.341Z,14.40
2022-10-18T01:44:38.720Z,14.50
2022-10-18T01:47:14.021Z,14.50
2022-10-18T01:49:46.485Z,14.50
2022-10-18T01:52:18.402Z,14.50
2022-10-18T01:54:50.381Z,14.50
2022-10-18T01:57:52.112Z,14.60
2022-10-18T02:00:44.362Z,14.60
2022-10-18T02:03:24.515Z,14.60
2022-10-18T02:06:05.425Z,14.60
2022-10-18T02:08:59.430Z,14.60
2022-10-18T02:11:39.367Z,14.60
2022-10-18T02:14:14.301Z,14.60
2022-10-18T02:16:53.851Z,14.60
2022-10-18T02:19:39.626Z,14.60
2022-10-18T02:22:16.271Z,14.60
2022-10-18T02:24:53.740Z,14.60
2022-10-18T02:27:27.191Z,14.60
2022-10-18T02:29:59.399Z,14.60
2022-10-18T02:32:40.793Z,14.60
2022-10-18T02:35:29.335Z,14.60
2022-10-18T02:38:14.286Z,14.60
2022-10-18T02:40:48.107Z,14.60
2022-10-18T02:43:20.032Z,14.60
2022-10-18T02:45:54.960Z,14.60
2022-10-18T02:48:27.054Z,14.60
2022-10-18T02:50:58.994Z,14.60
2022-10-18T02:53:31.099Z,14.60
2022-10-18T02:56:03.320Z,14.60
2022-10-18T02:58:35.679Z,14.60
2022-10-18T03:01:07.779Z,14.60
2022-10-18T03:03:39.780Z,14.60
2022-10-18T03:06:11.627Z,14.60
2022-10-18T03:08:43.638Z,14.60
2022-10-18T03:11:15.901Z,14.60
2022-10-18T03:13:47.754Z,14.60
2022-10-18T03:16:21.642Z,14.60
2022-10-18T03:18:53.740Z,14.60
2022-10-18T03:21:25.831Z,14.60
2022-10-18T03:23:58.908Z,14.60
2022-10-18T03:26:30.866Z,14.60
2022-10-18T03:29:03.082Z,14.60
2022-10-18T03:31:36.287Z,14.60
2022-10-18T03:34:08.331Z,14.60
2022-10-18T03:36:41.405Z,14.60
2022-10-18T03:39:13.358Z,14.50
2022-10-18T03:41:45.338Z,14.60
2022-10-18T03:44:17.372Z,14.60
2022-10-18T03:46:49.417Z,14.50
2022-10-18T03:49:21.396Z,14.50
2022-10-18T03:51:53.346Z,14.50
2022-10-18T03:54:25.453Z,14.50
2022-10-18T03:56:57.387Z,14.50
2022-10-18T03:59:29.299Z,14.40
2022-10-18T04:02:01.278Z,14.40
2022-10-18T04:04:33.248Z,14.40
2022-10-18T04:07:05.311Z,14.30
2022-10-18T04:09:37.293Z,14.30
2022-10-18T04:12:09.514Z,14.30
2022-10-18T04:14:41.361Z,14.30
2022-10-18T04:17:13.414Z,14.20
2022-10-18T04:19:47.412Z,14.20
2022-10-18T04:22:20.070Z,14.20
2022-10-18T04:24:53.335Z,14.20
2022-10-18T04:27:25.432Z,14.30
2022-10-18T04:29:57.388Z,14.30
2022-10-18T04:32:35.034Z,14.30
2022-10-18T04:35:07.396Z,14.40
2022-10-18T04:37:40.708Z,14.40
2022-10-18T04:40:12.942Z,14.40
2022-10-18T04:42:45.109Z,14.50
2022-10-18T04:45:17.464Z,14.60
2022-10-18T04:47:49.393Z,14.60
2022-10-18T04:50:27.982Z,14.70
2022-10-18T04:53:00.153Z,14.80
2022-10-18T04:55:32.998Z,14.80
2022-10-18T04:58:05.007Z,14.90
2022-10-18T05:00:40.042Z,15.00
2022-10-18T05:03:14.557Z,15.00
2022-10-18T05:06:02.808Z,15.10
2022-10-18T05:08:36.725Z,15.20
2022-10-18T05:13:43.364Z,15.50
2022-10-18T05:16:16.830Z,15.60
2022-10-18T05:18:48.973Z,15.70
2022-10-18T05:21:20.936Z,15.90
2022-10-18T05:23:56.696Z,15.90
2022-10-18T05:26:28.760Z,16.00
2022-10-18T05:29:00.999Z,16.00
2022-10-18T05:31:33.466Z,16.10
2022-10-18T05:34:05.453Z,16.10
2022-10-18T05:36:37.486Z,16.10
2022-10-18T05:39:09.581Z,16.10
2022-10-18T05:41:41.614Z,16.10
2022-10-18T05:44:13.874Z,16.20
2022-10-18T05:46:47.180Z,16.20
2022-10-18T05:49:19.313Z,16.20
2022-10-18T05:51:51.439Z,16.20
2022-10-18T05:54:23.572Z,16.30
2022-10-18T05:56:56.664Z,16.30
2022-10-18T05:59:28.782Z,16.40
2022-10-18T06:02:00.827Z,16.30
2022-10-18T06:04:33.152Z,16.30
2022-10-18T06:07:11.012Z,16.30
2022-10-18T06:09:43.526Z,16.30
2022-10-18T06:12:15.651Z,16.30
2022-10-18T06:15:03.005Z,16.20
2022-10-18T06:17:35.843Z,16.30
2022-10-18T06:20:08.509Z,16.30
2022-10-18T06:22:40.946Z,16.30
2022-10-18T06:25:13.158Z,16.40
2022-10-18T06:27:45.145Z,16.40
2022-10-18T06:30:17.337Z,16.50
2022-10-18T06:33:19.489Z,16.50
2022-10-18T06:36:16.555Z,16.70
2022-10-18T06:38:51.490Z,16.90
2022-10-18T06:41:24.697Z,17.10
2022-10-18T06:43:58.566Z,17.20
2022-10-18T06:46:34.221Z,17.40
2022-10-18T06:49:06.276Z,17.40
2022-10-18T06:51:39.140Z,17.40
2022-10-18T06:54:17.928Z,17.40
2022-10-18T06:56:50.631Z,17.40
2022-10-18T06:59:28.994Z,17.30
2022-10-18T07:02:03.252Z,17.30
2022-10-18T07:04:35.336Z,17.30
2022-10-18T07:07:07.405Z,17.30
2022-10-18T07:09:39.407Z,17.20
2022-10-18T07:12:12.156Z,17.20
2022-10-18T07:14:46.668Z,17.20
2022-10-18T07:17:18.706Z,17.10
2022-10-18T07:19:50.722Z,17.10
2022-10-18T07:22:25.002Z,17.10
2022-10-18T07:25:00.820Z,17.10
2022-10-18T07:27:40.217Z,17.20
2022-10-18T07:30:13.526Z,17.20
2022-10-18T07:32:45.582Z,17.30
2022-10-18T07:35:17.685Z,17.30
2022-10-18T07:37:49.704Z,17.40
2022-10-18T07:40:23.061Z,17.40
2022-10-18T07:42:55.002Z,17.40
2022-10-18T07:45:26.984Z,17.50
2022-10-18T07:47:59.237Z,17.50
2022-10-18T07:50:31.283Z,17.60
2022-10-18T07:53:03.430Z,17.60
2022-10-18T07:55:35.367Z,17.70
2022-10-18T07:58:07.660Z,17.80
2022-10-18T08:00:40.002Z,17.80
2022-10-18T08:03:12.009Z,17.90
2022-10-18T08:05:44.100Z,18.00
2022-10-18T08:08:25.805Z,18.10
2022-10-18T08:11:06.789Z,18.10
2022-10-18T08:13:44.740Z,18.20
2022-10-18T08:16:20.168Z,18.20
2022-10-18T08:18:58.773Z,18.20
2022-10-18T08:21:30.764Z,18.20
2022-10-18T08:24:02.875Z,18.20
2022-10-18T08:26:35.382Z,18.30
2022-10-18T08:29:22.173Z,18.30
2022-10-18T08:31:56.386Z,18.30
2022-10-18T08:34:31.048Z,18.40
2022-10-18T08:37:03.314Z,18.40
2022-10-18T08:39:35.616Z,18.50
2022-10-18T08:42:07.569Z,18.50
2022-10-18T08:45:04.989Z,18.60
2022-10-18T08:47:49.196Z,18.60
2022-10-18T08:50:29.299Z,18.70
2022-10-18T08:53:26.239Z,18.80
2022-10-18T08:56:14.894Z,18.90
2022-10-18T08:58:47.609Z,19.10
2022-10-18T09:01:19.583Z,19.30
2022-10-18T09:04:20.696Z,19.50
2022-10-18T09:07:26.895Z,19.70
2022-10-18T09:10:52.561Z,19.90
2022-10-18T09:14:06.280Z,20.20
2022-10-18T09:17:26.672Z,20.40
2022-10-18T09:20:35.438Z,20.50
2022-10-18T09:23:23.150Z,20.60
2022-10-18T09:26:21.392Z,20.60
2022-10-18T09:29:13.072Z,20.50
2022-10-18T09:32:14.535Z,20.30
2022-10-18T09:35:19.961Z,20.10
2022-10-18T09:38:03.613Z,20.00
2022-10-18T09:41:07.372Z,19.90
2022-10-18T09:44:10.921Z,19.80
2022-10-18T09:47:08.442Z,19.60
2022-10-18T09:49:52.121Z,19.60
2022-10-18T09:52:41.187Z,19.50
2022-10-18T09:55:23.831Z,19.50
2022-10-18T09:58:05.447Z,19.50
2022-10-18T10:00:52.885Z,19.50
2022-10-18T10:03:26.325Z,19.60
2022-10-18T10:06:26.567Z,19.70
2022-10-18T10:09:06.929Z,19.90
2022-10-18T10:11:48.719Z,19.90
2022-10-18T10:14:28.327Z,20.00
2022-10-18T10:17:26.258Z,20.00
2022-10-18T10:20:22.152Z,20.10
2022-10-18T10:23:08.298Z,20.20
2022-10-18T10:26:04.929Z,20.20
2022-10-18T10:28:52.531Z,20.30
2022-10-18T10:31:24.832Z,20.50
2022-10-18T10:34:14.439Z,20.50
2022-10-18T10:36:53.703Z,20.70
2022-10-18T10:39:25.907Z,20.90
2022-10-18T10:42:00.113Z,21.10
2022-10-18T10:44:36.455Z,21.30
2022-10-18T10:47:33.417Z,21.40
2022-10-18T10:50:12.716Z,21.40
2022-10-18T10:52:56.866Z,21.40
2022-10-18T10:55:35.803Z,21.60
2022-10-18T10:58:18.248Z,21.70
2022-10-18T11:00:50.339Z,21.90
2022-10-18T11:03:28.986Z,22.10
2022-10-18T11:06:45.630Z,22.30
2022-10-18T11:09:38.352Z,22.30
2022-10-18T11:12:39.058Z,22.30
2022-10-18T11:15:38.574Z,22.30
2022-10-18T11:18:18.814Z,22.30
2022-10-18T11:21:11.547Z,22.30
2022-10-18T11:23:49.080Z,22.40
2022-10-18T11:26:40.899Z,22.50
2022-10-18T11:29:38.674Z,22.80
2022-10-18T11:32:55.696Z,23.00
2022-10-18T11:36:02.849Z,23.10
2022-10-18T11:39:04.385Z,23.20
2022-10-18T11:42:28.904Z,23.00
2022-10-18T11:45:43.611Z,23.00
2022-10-18T11:48:31.426Z,22.80
2022-10-18T11:51:38.588Z,22.60
2022-10-18T11:54:50.473Z,22.40
2022-10-18T11:57:53.596Z,22.20
2022-10-18T12:00:44.992Z,22.00
2022-10-18T12:03:38.723Z,21.80
2022-10-18T12:06:28.257Z,21.60
2022-10-18T12:09:32.505Z,21.70
2022-10-18T12:12:21.510Z,21.90
2022-10-18T12:15:20.409Z,22.10
2022-10-18T12:17:56.950Z,22.30
2022-10-18T12:20:41.677Z,22.40
2022-10-18T12:23:33.504Z,22.40
2022-10-18T12:26:13.515Z,22.40
2022-10-18T12:29:08.675Z,22.30
2022-10-18T12:32:07.292Z,22.40
2022-10-18T12:34:47.690Z,22.60
2022-10-18T12:37:38.164Z,22.80
2022-10-18T12:40:38.748Z,22.80
2022-10-18T12:43:36.450Z,22.70
2022-10-18T12:46:13.845Z,22.50
2022-10-18T12:49:00.838Z,22.30
2022-10-18T12:51:34.796Z,22.10
2022-10-18T12:54:27.000Z,22.00
2022-10-18T12:57:05.033Z,22.00
2022-10-18T12:59:49.047Z,22.20
2022-10-18T13:02:24.774Z,22.30
2022-10-18T13:05:00.491Z,22.40
2022-10-18T13:08:21.947Z,22.50
2022-10-18T13:11:10.023Z,22.60
2022-10-18T13:14:07.594Z,22.70
2022-10-18T13:16:58.115Z,22.80
2022-10-18T13:20:25.430Z,23.00
2022-10-18T13:23:38.335Z,23.20
2022-10-18T13:26:59.068Z,23.30
2022-10-18T13:30:02.288Z,23.40
2022-10-18T13:33:04.345Z,23.40
2022-10-18T13:36:07.046Z,23.50
2022-10-18T13:38:55.751Z,23.50
2022-10-18T13:41:57.583Z,23.70
2022-10-18T13:44:49.697Z,23.70
2022-10-18T13:47:37.966Z,23.40
2022-10-18T13:50:34.214Z,23.30
2022-10-18T13:53:45.357Z,23.40
2022-10-18T13:56:51.311Z,23.40
2022-10-18T13:59:52.327Z,23.20
2022-10-18T14:02:58.690Z,23.10
2022-10-18T14:05:51.457Z,23.00
2022-10-18T14:09:19.721Z,23.00
2022-10-18T14:12:30.965Z,23.20
2022-10-18T14:15:25.610Z,23.20
2022-10-18T14:18:11.372Z,22.90
2022-10-18T14:21:15.292Z,22.70
2022-10-18T14:23:54.776Z,22.40
2022-10-18T14:26:29.284Z,22.20
2022-10-18T14:29:16.164Z,22.10
2022-10-18T14:31:54.447Z,21.90
2022-10-18T14:34:27.220Z,21.80
2022-10-18T14:37:33.214Z,21.60
2022-10-18T14:40:06.894Z,21.60
2022-10-18T14:43:19.638Z,21.50
2022-10-18T14:45:51.744Z,21.40
2022-10-18T14:48:24.007Z,21.30
2022-10-18T14:51:00.312Z,21.20
2022-10-18T14:53:39.113Z,21.20
2022-10-18T14:56:23.518Z,21.20
2022-10-18T14:59:02.961Z,21.20
2022-10-18T15:01:40.423Z,21.30
2022-10-18T15:04:34.491Z,21.20
2022-10-18T15:07:08.273Z,21.20
2022-10-18T15:09:47.476Z,21.10
2022-10-18T15:12:20.190Z,21.10
2022-10-18T15:14:53.372Z,21.00
2022-10-18T15:17:32.956Z,20.90
2022-10-18T15:20:19.010Z,20.90
2022-10-18T15:23:22.376Z,20.80
2022-10-18T15:26:12.937Z,20.70
2022-10-18T15:28:53.945Z,20.60
2022-10-18T15:31:34.919Z,20.50
2022-10-18T15:34:20.208Z,20.40
2022-10-18T15:36:56.025Z,20.30
2022-10-18T15:39:31.167Z,20.20
2022-10-18T15:42:03.492Z,20.20
2022-10-18T15:44:48.501Z,20.20
2022-10-18T15:47:24.359Z,20.10
2022-10-18T15:49:58.417Z,20.10
2022-10-18T15:52:39.282Z,20.00
2022-10-18T15:55:31.245Z,20.00
2022-10-18T15:58:28.486Z,20.00
2022-10-18T16:01:23.050Z,19.90
2022-10-18T16:04:18.303Z,19.90
2022-10-18T16:06:58.593Z,19.90
2022-10-18T16:09:31.171Z,19.80
2022-10-18T16:12:04.061Z,19.80
2022-10-18T16:14:36.249Z,19.80
2022-10-18T16:17:16.800Z,19.80
2022-10-18T16:19:49.287Z,19.70
2022-10-18T16:22:21.286Z,19.70
2022-10-18T16:24:53.785Z,19.70
2022-10-18T16:27:26.640Z,19.70
2022-10-18T16:29:58.888Z,19.60
2022-10-18T16:32:31.366Z,19.60
2022-10-18T16:35:03.804Z,19.60
2022-10-18T16:37:38.205Z,19.50
2022-10-18T16:40:25.814Z,19.50
2022-10-18T16:42:58.735Z,19.50
2022-10-18T16:45:31.024Z,19.40
2022-10-18T16:48:03.146Z,19.40
2022-10-18T16:50:35.606Z,19.40
2022-10-18T16:53:07.571Z,19.40
2022-10-18T16:55:41.265Z,19.30
2022-10-18T16:58:18.152Z,19.30
2022-10-18T17:00:50.732Z,19.30
2022-10-18T17:03:23.819Z,19.20
2022-10-18T17:05:56.822Z,19.20
2022-10-18T17:08:29.233Z,19.20
2022-10-18T17:11:02.556Z,19.10
2022-10-18T17:13:34.806Z,19.10
2022-10-18T17:16:08.050Z,19.10
2022-10-18T17:19:01.468Z,19.00
2022-10-18T17:21:36.393Z,18.90
2022-10-18T17:24:08.550Z,18.80
2022-10-18T17:26:40.816Z,18.80
2022-10-18T17:29:13.101Z,18.80
2022-10-18T17:31:45.574Z,18.70
2022-10-18T17:34:21.406Z,18.70
2022-10-18T17:36:54.363Z,18.60
2022-10-18T17:39:26.796Z,18.60
2022-10-18T17:41:59.260Z,18.50
2022-10-18T17:44:31.388Z,18.50
2022-10-18T17:47:03.602Z,18.50
2022-10-18T17:49:36.213Z,18.40
2022-10-18T17:52:08.443Z,18.40
2022-10-18T17:54:40.390Z,18.30
2022-10-18T17:57:12.460Z,18.30
2022-10-18T17:59:44.593Z,18.20
2022-10-18T18:02:18.357Z,18.20
2022-10-18T18:04:50.560Z,18.10
2022-10-18T18:07:24.781Z,18.00
2022-10-18T18:09:57.207Z,17.90
2022-10-18T18:12:30.039Z,17.90
2022-10-18T18:15:02.599Z,17.80
2022-10-18T18:38:39.732Z,17.40
2022-10-18T18:41:14.468Z,17.30
2022-10-18T18:43:58.035Z,17.30
2022-10-18T18:46:38.466Z,17.30
2022-10-18T18:49:11.690Z,17.20
2022-10-18T18:51:44.172Z,17.20
2022-10-18T18:54:17.084Z,17.10
2022-10-18T18:56:49.248Z,17.10
2022-10-18T18:59:21.376Z,17.00
2022-10-18T19:01:53.519Z,17.00
2022-10-18T19:04:25.764Z,16.90
2022-10-18T19:06:59.919Z,16.90
2022-10-18T19:09:32.886Z,16.90
2022-10-18T19:12:09.185Z,16.80
2022-10-18T19:14:41.523Z,16.70
2022-10-18T19:17:13.707Z,16.70
2022-10-18T19:19:45.911Z,16.60
2022-10-18T19:22:18.057Z,16.50
2022-10-18T19:24:50.841Z,16.50
2022-10-18T19:27:25.110Z,16.40
2022-10-18T19:29:57.920Z,16.40
2022-10-18T19:32:30.168Z,16.30
2022-10-18T19:35:02.642Z,16.30
2022-10-18T19:37:35.455Z,16.30
2022-10-18T19:40:08.504Z,16.20
2022-10-18T19:42:40.985Z,16.20
2022-10-18T19:45:13.325Z,16.20
2022-10-18T19:47:47.118Z,16.20
2022-10-18T19:50:20.420Z,16.10
2022-10-18T19:52:53.278Z,16.10
2022-10-18T19:55:27.243Z,16.10
2022-10-18T19:58:01.770Z,16.00
2022-10-18T20:00:34.279Z,16.00
2022-10-18T20:03:06.346Z,16.00
2022-10-18T20:05:39.530Z,15.90
2022-10-18T20:08:12.344Z,15.90
2022-10-18T20:10:44.965Z,15.90
2022-10-18T20:13:17.424Z,15.80
2022-10-18T20:15:51.017Z,15.80
2022-10-18T20:18:23.584Z,15.70
2022-10-18T20:20:55.877Z,15.70
2022-10-18T20:23:29.687Z,15.70
2022-10-18T20:26:09.049Z,15.70
2022-10-18T20:28:46.726Z,15.70
2022-10-18T20:31:20.345Z,15.70
2022-10-18T20:34:06.701Z,15.60
2022-10-18T20:36:42.934Z,15.60
2022-10-18T20:39:15.088Z,15.50
2022-10-18T20:41:47.537Z,15.50
2022-10-18T20:44:21.297Z,15.40
2022-10-18T20:46:53.493Z,15.40
2022-10-18T20:49:28.799Z,15.30
2022-10-18T20:52:00.958Z,15.30
2022-10-18T20:54:33.189Z,15.30
2022-10-18T20:57:05.316Z,15.20
2022-10-18T20:59:37.843Z,15.20
2022-10-18T21:02:13.049Z,15.10
2022-10-18T21:05:09.198Z,15.10
2022-10-18T21:07:41.825Z,15.10
2022-10-18T21:10:13.901Z,15.00
2022-10-18T21:12:48.135Z,15.00
2022-10-18T21:15:22.303Z,15.00
2022-10-18T21:17:54.443Z,15.00
2022-10-18T21:20:26.519Z,14.90
2022-10-18T21:23:00.666Z,14.90
2022-10-18T21:25:32.740Z,14.90
2022-10-18T21:28:04.916Z,14.90
2022-10-18T21:30:37.057Z,14.80
2022-10-18T21:33:09.085Z,14.80
2022-10-18T21:35:41.863Z,14.80
2022-10-18T21:38:13.918Z,14.70
2022-10-18T21:40:45.970Z,14.70
2022-10-18T21:43:18.066Z,14.60
2022-10-18T21:45:56.174Z,14.60
2022-10-18T21:48:30.704Z,14.60
2022-10-18T21:51:07.507Z,14.50
2022-10-18T21:53:43.686Z,14.50
2022-10-18T21:56:42.581Z,14.50
2022-10-18T21:59:14.749Z,14.50
2022-10-18T22:01:46.735Z,14.50
2022-10-18T22:04:27.796Z,14.50
2022-10-18T22:06:59.832Z,14.40
2022-10-18T22:09:33.595Z,14.50
2022-10-18T22:12:06.765Z,14.40
2022-10-18T22:14:39.629Z,14.40
2022-10-18T22:17:11.630Z,14.40
2022-10-18T22:19:43.692Z,14.30
2022-10-18T22:22:15.915Z,14.30
2022-10-18T22:24:48.470Z,14.20
2022-10-18T22:27:20.446Z,14.20
2022-10-18T22:29:53.397Z,14.20
2022-10-18T22:32:25.526Z,14.20
2022-10-18T22:34:57.534Z,14.10
2022-10-18T22:37:29.516Z,14.10
2022-10-18T22:40:01.516Z,14.10
2022-10-18T22:45:07.303Z,14.10
2022-10-18T22:47:39.490Z,14.10
2022-10-18T22:50:11.427Z,14.10
2022-10-18T22:52:43.352Z,14.10
2022-10-18T22:55:17.433Z,14.20
2022-10-18T22:57:49.502Z,14.20
2022-10-18T23:00:21.443Z,14.20
2022-10-18T23:02:53.393Z,14.20
2022-10-18T23:05:25.382Z,14.20
2022-10-18T23:07:57.304Z,14.20
2022-10-18T23:10:29.212Z,14.10
2022-10-18T23:13:02.060Z,14.10
2022-10-18T23:15:35.953Z,14.00
2022-10-18T23:18:09.779Z,14.00
2022-10-18T23:20:41.898Z,13.90
2022-10-18T23:23:14.802Z,13.90
2022-10-18T23:25:49.757Z,13.90
2022-10-18T23:28:24.691Z,13.90
2022-10-18T23:30:56.578Z,13.90
2022-10-18T23:33:28.463Z,13.80
2022-10-18T23:36:00.392Z,13.80
2022-10-18T23:38:33.079Z,13.80
2022-10-18T23:41:06.923Z,13.80
2022-10-18T23:43:40.549Z,13.80
2022-10-18T23:46:14.431Z,13.80
2022-10-18T23:48:48.156Z,13.80
2022-10-18T23:51:20.438Z,13.80
2022-10-18T23:53:52.369Z,13.80
2022-10-18T23:56:24.303Z,13.70
2022-10-18T23:58:56.493Z,13.70
